TimeCST,TemperatureF,Dew PointF,Humidity,Sea Level PressureIn,VisibilityMPH,Wind Direction,Wind SpeedMPH,Gust SpeedMPH,PrecipitationIn,Events,Conditions,WindDirDegrees,DateUTC
12:15 AM,45.9,36.5,70,29.99,10.0,Calm,Calm,-,N/A,,Mostly Cloudy,0,2013-02-20 06:15:00
12:55 AM,46.4,37.0,70,29.98,10.0,East,3.5,-,N/A,,Overcast,80,2013-02-20 06:55:00
1:15 AM,45.9,36.9,71,29.97,10.0,East,6.9,-,N/A,,Overcast,90,2013-02-20 07:15:00
1:35 AM,45.5,37.0,72,29.94,10.0,East,9.2,-,N/A,,Overcast,90,2013-02-20 07:35:00
1:55 AM,45.1,36.5,72,29.92,10.0,East,10.4,-,N/A,,Scattered Clouds,100,2013-02-20 07:55:00
2:15 AM,44.8,35.1,69,29.89,10.0,East,12.7,-,N/A,,Clear,80,2013-02-20 08:15:00
2:35 AM,44.2,34.9,70,29.86,10.0,East,13.8,-,N/A,,Clear,90,2013-02-20 08:35:00
2:55 AM,44.2,34.9,70,29.87,10.0,ESE,11.5,-,N/A,,Clear,110,2013-02-20 08:55:00
3:15 AM,43.0,34.7,73,29.86,10.0,ESE,10.4,-,N/A,,Clear,110,2013-02-20 09:15:00
3:35 AM,42.8,34.5,73,29.87,10.0,ESE,8.1,-,N/A,,Clear,110,2013-02-20 09:35:00
3:55 AM,41.0,33.8,76,29.86,10.0,East,5.8,-,N/A,,Clear,90,2013-02-20 09:55:00
4:15 AM,39.7,33.3,78,29.86,10.0,East,5.8,-,N/A,,Clear,90,2013-02-20 10:15:00
4:35 AM,38.8,32.9,79,29.85,10.0,East,6.9,-,N/A,,Clear,100,2013-02-20 10:35:00
4:55 AM,37.9,32.4,80,29.84,10.0,East,4.6,-,N/A,,Clear,90,2013-02-20 10:55:00
5:15 AM,38.5,32.5,79,29.83,10.0,ESE,8.1,-,N/A,,Clear,120,2013-02-20 11:15:00
5:35 AM,37.2,32.0,81,29.83,10.0,ENE,3.5,-,N/A,,Clear,70,2013-02-20 11:35:00
6:15 AM,38.5,32.9,80,29.81,10.0,East,9.2,-,N/A,,Clear,80,2013-02-20 12:15:00
6:55 AM,39.9,35.1,83,29.81,10.0,East,8.1,-,N/A,,Clear,90,2013-02-20 12:55:00
7:15 AM,38.3,34.3,86,29.81,10.0,ENE,3.5,-,N/A,,Clear,60,2013-02-20 13:15:00
7:55 AM,35.6,32.9,90,29.81,10.0,Calm,Calm,-,N/A,,Clear,0,2013-02-20 13:55:00
8:15 AM,36.5,33.8,90,29.81,10.0,Calm,Calm,-,N/A,,Clear,0,2013-02-20 14:15:00
8:35 AM,38.3,34.9,87,29.80,10.0,ESE,3.5,-,N/A,,Clear,120,2013-02-20 14:35:00
8:55 AM,41.0,35.8,82,29.80,10.0,SE,4.6,-,N/A,,Clear,130,2013-02-20 14:55:00
9:15 AM,43.0,35.8,76,29.80,10.0,SE,8.1,-,N/A,,Clear,130,2013-02-20 15:15:00
9:55 AM,43.9,36.0,74,29.79,10.0,SSE,5.8,-,N/A,,Clear,160,2013-02-20 15:55:00
10:35 AM,48.4,37.0,65,29.78,10.0,SE,3.5,-,N/A,,Clear,130,2013-02-20 16:35:00
12:15 PM,57.4,38.1,49,29.71,10.0,Calm,Calm,-,N/A,,Clear,0,2013-02-20 18:15:00
1:35 PM,66.4,39.7,38,29.62,10.0,Calm,Calm,-,N/A,,Clear,0,2013-02-20 19:35:00
1:55 PM,69.3,38.7,33,29.59,10.0,NW,3.5,-,N/A,,Clear,320,2013-02-20 19:55:00
2:15 PM,72.3,36.0,26,29.58,10.0,Calm,Calm,-,N/A,,Clear,0,2013-02-20 20:15:00
2:35 PM,74.1,34.0,23,29.56,10.0,WSW,3.5,-,N/A,,Clear,250,2013-02-20 20:35:00
3:35 PM,76.1,29.7,18,29.51,10.0,Calm,Calm,-,N/A,,Clear,0,2013-02-20 21:35:00
4:55 PM,76.1,25.7,15,29.44,10.0,NE,3.5,-,N/A,,Clear,40,2013-02-20 22:55:00
5:35 PM,75.4,25.0,15,29.42,10.0,North,6.9,-,N/A,,Clear,360,2013-02-20 23:35:00
5:55 PM,72.5,36.7,27,29.41,10.0,North,10.4,-,N/A,,Clear,10,2013-02-20 23:55:00
6:15 PM,70.3,40.1,33,29.40,10.0,North,10.4,-,N/A,,Clear,360,2013-02-21 00:15:00
6:35 PM,67.1,43.3,42,29.41,10.0,East,12.7,19.6,N/A,,Clear,90,2013-02-21 00:35:00
6:55 PM,64.9,44.2,47,29.42,10.0,ESE,17.3,23.0,N/A,,Clear,110,2013-02-21 00:55:00
7:15 PM,63.7,45.0,51,29.45,10.0,ESE,15.0,-,N/A,,Mostly Cloudy,120,2013-02-21 01:15:00
7:35 PM,62.1,46.0,56,29.46,10.0,East,12.7,-,N/A,,Overcast,100,2013-02-21 01:35:00
7:55 PM,60.4,47.1,61,29.48,10.0,East,11.5,-,N/A,,Overcast,80,2013-02-21 01:55:00
8:15 PM,59.9,49.1,67,29.49,10.0,ENE,13.8,-,N/A,,Overcast,60,2013-02-21 02:15:00
8:35 PM,59.0,49.5,71,29.47,10.0,NE,10.4,-,N/A,,Overcast,50,2013-02-21 02:35:00
8:55 PM,57.7,49.5,74,29.49,10.0,NNE,8.1,-,N/A,,Overcast,30,2013-02-21 02:55:00
9:15 PM,56.8,49.3,76,29.51,10.0,West,4.6,-,N/A,,Overcast,280,2013-02-21 03:15:00
9:35 PM,54.5,48.2,79,29.51,10.0,WNW,8.1,-,N/A,,Overcast,290,2013-02-21 03:35:00
9:55 PM,55.0,48.9,80,29.53,10.0,WNW,9.2,-,N/A,,Overcast,290,2013-02-21 03:55:00
10:35 PM,54.9,49.1,81,29.56,10.0,WNW,10.4,-,N/A,,Overcast,300,2013-02-21 04:35:00
10:55 PM,54.0,49.1,84,29.58,10.0,West,8.1,-,N/A,,Overcast,280,2013-02-21 04:55:00
11:15 PM,53.8,49.3,85,29.60,10.0,West,13.8,-,N/A,,Overcast,280,2013-02-21 05:15:00
11:35 PM,54.7,49.5,83,29.62,10.0,WNW,15.0,-,N/A,,Overcast,290,2013-02-21 05:35:00
11:55 PM,57.2,31.3,37,29.63,3.0,WNW,17.3,23.0,N/A,,Haze,290,2013-02-21 05:55:00